sensor_id;sensor_type;location;lat;lon;timestamp;pressure;altitude;pressure_sealevel;temperature;humidity
63493;BME280;49638;47.526;10.028;2023-11-19T00:00:57;91797.94;;;4.22;100.00
63493;BME280;49638;47.526;10.028;2023-11-19T00:03:58;91824.09;;;4.42;100.00
63493;BME280;49638;47.526;10.028;2023-11-19T00:06:58;91823.69;;;4.45;100.00
63493;BME280;49638;47.526;10.028;2023-11-19T00:10:03;91808.56;;;4.41;100.00
63493;BME280;49638;47.526;10.028;2023-11-19T00:13:06;91809.97;;;4.43;100.00
63493;BME280;49638;47.526;10.028;2023-11-19T00:16:07;91796.28;;;4.41;100.00
63493;BME280;49638;47.526;10.028;2023-11-19T00:19:09;91808.56;;;4.54;100.00
63493;BME280;49638;47.526;10.028;2023-11-19T00:22:09;91804.31;;;4.60;100.00
63493;BME280;49638;47.526;10.028;2023-11-19T00:25:10;91795.25;;;4.62;100.00
63493;BME280;49638;47.526;10.028;2023-11-19T00:28:10;91793.03;;;4.66;100.00
63493;BME280;49638;47.526;10.028;2023-11-19T00:31:10;91778.84;;;4.93;100.00
63493;BME280;49638;47.526;10.028;2023-11-19T00:34:11;91791.97;;;5.32;100.00
63493;BME280;49638;47.526;10.028;2023-11-19T00:37:11;91779.88;;;5.31;100.00
63493;BME280;49638;47.526;10.028;2023-11-19T00:40:12;91771.06;;;5.18;100.00
63493;BME280;49638;47.526;10.028;2023-11-19T00:43:12;91780.53;;;5.19;100.00
63493;BME280;49638;47.526;10.028;2023-11-19T00:46:13;91803.94;;;5.14;100.00
63493;BME280;49638;47.526;10.028;2023-11-19T00:49:13;91776.38;;;5.05;100.00
63493;BME280;49638;47.526;10.028;2023-11-19T00:52:16;91790.25;;;5.06;100.00
63493;BME280;49638;47.526;10.028;2023-11-19T00:55:16;91786.06;;;4.98;100.00
63493;BME280;49638;47.526;10.028;2023-11-19T00:58:17;91810.28;;;4.93;100.00
63493;BME280;49638;47.526;10.028;2023-11-19T01:01:18;91791.75;;;4.82;100.00
63493;BME280;49638;47.526;10.028;2023-11-19T01:04:18;91800.47;;;4.76;100.00
63493;BME280;49638;47.526;10.028;2023-11-19T01:07:18;91779.53;;;4.76;100.00
63493;BME280;49638;47.526;10.028;2023-11-19T01:10:19;91789.16;;;4.82;100.00
63493;BME280;49638;47.526;10.028;2023-11-19T01:13:20;91757.78;;;4.68;100.00
63493;BME280;49638;47.526;10.028;2023-11-19T01:16:20;91784.69;;;4.89;100.00
63493;BME280;49638;47.526;10.028;2023-11-19T01:19:21;91802.19;;;5.02;100.00
63493;BME280;49638;47.526;10.028;2023-11-19T01:22:22;91770.34;;;4.98;100.00
63493;BME280;49638;47.526;10.028;2023-11-19T01:25:23;91768.06;;;5.15;100.00
63493;BME280;49638;47.526;10.028;2023-11-19T01:28:23;91749.88;;;5.27;100.00
63493;BME280;49638;47.526;10.028;2023-11-19T01:31:23;91750.81;;;5.39;100.00
63493;BME280;49638;47.526;10.028;2023-11-19T01:34:24;91753.09;;;5.60;100.00
63493;BME280;49638;47.526;10.028;2023-11-19T01:37:24;91769.00;;;5.90;100.00
63493;BME280;49638;47.526;10.028;2023-11-19T01:40:24;91766.16;;;5.99;100.00
63493;BME280;49638;47.526;10.028;2023-11-19T01:43:51;91772.44;;;6.23;100.00
63493;BME280;49638;47.526;10.028;2023-11-19T01:46:52;91767.31;;;6.28;100.00
63493;BME280;49638;47.526;10.028;2023-11-19T01:49:52;91773.41;;;6.47;100.00
63493;BME280;49638;47.526;10.028;2023-11-19T01:52:54;91767.94;;;6.48;100.00
63493;BME280;49638;47.526;10.028;2023-11-19T01:55:55;91768.03;;;6.60;100.00
63493;BME280;49638;47.526;10.028;2023-11-19T01:58:57;91768.03;;;6.60;100.00
63493;BME280;49638;47.526;10.028;2023-11-19T02:01:57;91767.97;;;6.67;100.00
63493;BME280;49638;47.526;10.028;2023-11-19T02:04:58;91766.28;;;6.72;100.00
63493;BME280;49638;47.526;10.028;2023-11-19T02:07:58;91789.22;;;6.83;100.00
63493;BME280;49638;47.526;10.028;2023-11-19T02:10:58;91777.44;;;6.86;100.00
63493;BME280;49638;47.526;10.028;2023-11-19T02:14:00;91773.16;;;6.92;100.00
63493;BME280;49638;47.526;10.028;2023-11-19T02:17:01;91771.75;;;6.89;100.00
63493;BME280;49638;47.526;10.028;2023-11-19T02:20:02;91765.72;;;6.88;100.00
63493;BME280;49638;47.526;10.028;2023-11-19T02:23:03;91743.09;;;6.87;100.00
63493;BME280;49638;47.526;10.028;2023-11-19T02:26:18;91751.63;;;7.01;100.00
63493;BME280;49638;47.526;10.028;2023-11-19T02:29:20;91767.16;;;7.03;100.00
63493;BME280;49638;47.526;10.028;2023-11-19T02:32:21;91755.28;;;7.00;100.00
63493;BME280;49638;47.526;10.028;2023-11-19T02:35:21;91735.84;;;7.01;100.00
63493;BME280;49638;47.526;10.028;2023-11-19T02:38:21;91731.91;;;7.10;100.00
63493;BME280;49638;47.526;10.028;2023-11-19T02:41:22;91740.78;;;7.09;100.00
63493;BME280;49638;47.526;10.028;2023-11-19T02:44:22;91729.84;;;7.13;100.00
63493;BME280;49638;47.526;10.028;2023-11-19T02:47:23;91699.06;;;7.01;100.00
63493;BME280;49638;47.526;10.028;2023-11-19T02:50:24;91731.84;;;7.17;100.00
63493;BME280;49638;47.526;10.028;2023-11-19T02:53:25;91724.81;;;7.11;100.00
63493;BME280;49638;47.526;10.028;2023-11-19T02:56:27;91692.50;;;7.10;100.00
63493;BME280;49638;47.526;10.028;2023-11-19T02:59:29;91695.13;;;7.10;100.00
63493;BME280;49638;47.526;10.028;2023-11-19T03:02:40;91701.97;;;7.11;100.00
63493;BME280;49638;47.526;10.028;2023-11-19T03:05:44;91699.19;;;7.06;100.00
63493;BME280;49638;47.526;10.028;2023-11-19T03:08:45;91690.44;;;7.13;100.00
63493;BME280;49638;47.526;10.028;2023-11-19T03:11:46;91692.34;;;7.05;100.00
63493;BME280;49638;47.526;10.028;2023-11-19T03:14:46;91699.19;;;7.06;100.00
63493;BME280;49638;47.526;10.028;2023-11-19T03:17:48;91705.19;;;7.14;100.00
63493;BME280;49638;47.526;10.028;2023-11-19T03:20:48;91709.97;;;7.17;100.00
63493;BME280;49638;47.526;10.028;2023-11-19T03:23:49;91696.97;;;7.22;100.00
63493;BME280;49638;47.526;10.028;2023-11-19T03:26:50;91685.16;;;7.13;100.00
63493;BME280;49638;47.526;10.028;2023-11-19T03:29:50;91695.16;;;7.22;100.00
63493;BME280;49638;47.526;10.028;2023-11-19T03:32:50;91703.03;;;7.22;100.00
63493;BME280;49638;47.526;10.028;2023-11-19T03:35:50;91715.97;;;7.24;100.00
63493;BME280;49638;47.526;10.028;2023-11-19T03:38:52;91708.22;;;7.29;100.00
63493;BME280;49638;47.526;10.028;2023-11-19T03:41:52;91682.81;;;7.23;100.00
63493;BME280;49638;47.526;10.028;2023-11-19T03:44:53;91683.16;;;7.26;100.00
63493;BME280;49638;47.526;10.028;2023-11-19T03:47:53;91709.81;;;7.30;100.00
63493;BME280;49638;47.526;10.028;2023-11-19T03:50:54;91682.16;;;7.27;100.00
63493;BME280;49638;47.526;10.028;2023-11-19T03:53:54;91692.44;;;7.29;100.00
63493;BME280;49638;47.526;10.028;2023-11-19T03:56:54;91699.00;;;7.38;100.00
63493;BME280;49638;47.526;10.028;2023-11-19T03:59:55;91673.94;;;7.35;100.00
63493;BME280;49638;47.526;10.028;2023-11-19T04:02:55;91696.72;;;7.42;100.00
63493;BME280;49638;47.526;10.028;2023-11-19T04:05:56;91683.56;;;7.42;100.00
63493;BME280;49638;47.526;10.028;2023-11-19T04:08:56;91705.53;;;7.47;100.00
63493;BME280;49638;47.526;10.028;2023-11-19T04:11:57;91710.91;;;7.52;100.00
63493;BME280;49638;47.526;10.028;2023-11-19T04:14:57;91716.41;;;7.51;100.00
63493;BME280;49638;47.526;10.028;2023-11-19T04:17:58;91728.72;;;7.50;100.00
63493;BME280;49638;47.526;10.028;2023-11-19T04:20:58;91727.72;;;7.51;100.00
63493;BME280;49638;47.526;10.028;2023-11-19T04:23:59;91716.72;;;7.43;100.00
63493;BME280;49638;47.526;10.028;2023-11-19T04:26:59;91723.22;;;7.40;100.00
63493;BME280;49638;47.526;10.028;2023-11-19T04:29:59;91736.16;;;7.42;100.00
63493;BME280;49638;47.526;10.028;2023-11-19T04:33:01;91744.13;;;7.35;100.00
63493;BME280;49638;47.526;10.028;2023-11-19T04:36:02;91764.38;;;7.34;100.00
63493;BME280;49638;47.526;10.028;2023-11-19T04:39:03;91768.50;;;7.42;100.00
63493;BME280;49638;47.526;10.028;2023-11-19T04:42:09;91752.59;;;7.37;100.00
63493;BME280;49638;47.526;10.028;2023-11-19T04:45:09;91752.97;;;7.41;100.00
63493;BME280;49638;47.526;10.028;2023-11-19T04:48:10;91751.56;;;7.38;100.00
63493;BME280;49638;47.526;10.028;2023-11-19T04:51:10;91766.75;;;7.36;100.00
63493;BME280;49638;47.526;10.028;2023-11-19T04:54:11;91772.00;;;7.36;100.00
63493;BME280;49638;47.526;10.028;2023-11-19T04:57:11;91758.16;;;7.29;100.00
63493;BME280;49638;47.526;10.028;2023-11-19T05:00:12;91761.59;;;7.29;100.00
63493;BME280;49638;47.526;10.028;2023-11-19T05:03:13;91773.25;;;7.33;100.00
63493;BME280;49638;47.526;10.028;2023-11-19T05:06:13;91760.94;;;7.34;100.00
63493;BME280;49638;47.526;10.028;2023-11-19T05:09:15;91753.50;;;7.31;100.00
63493;BME280;49638;47.526;10.028;2023-11-19T05:12:15;91764.72;;;7.38;100.00
63493;BME280;49638;47.526;10.028;2023-11-19T05:15:16;91753.31;;;7.44;100.00
63493;BME280;49638;47.526;10.028;2023-11-19T05:18:16;91762.88;;;7.39;100.00
63493;BME280;49638;47.526;10.028;2023-11-19T05:21:16;91785.78;;;7.50;100.00
63493;BME280;49638;47.526;10.028;2023-11-19T05:24:17;91766.38;;;7.51;100.00
63493;BME280;49638;47.526;10.028;2023-11-19T05:27:18;91766.94;;;7.53;100.00
63493;BME280;49638;47.526;10.028;2023-11-19T05:30:18;91781.47;;;7.55;100.00
63493;BME280;49638;47.526;10.028;2023-11-19T05:33:18;91764.75;;;7.50;100.00
63493;BME280;49638;47.526;10.028;2023-11-19T05:36:19;91792.00;;;7.55;100.00
63493;BME280;49638;47.526;10.028;2023-11-19T05:39:19;91787.31;;;7.57;100.00
63493;BME280;49638;47.526;10.028;2023-11-19T05:42:20;91755.34;;;7.42;100.00
63493;BME280;49638;47.526;10.028;2023-11-19T05:45:20;91777.00;;;7.56;100.00
63493;BME280;49638;47.526;10.028;2023-11-19T05:48:20;91767.97;;;7.52;100.00
63493;BME280;49638;47.526;10.028;2023-11-19T05:51:21;91779.78;;;7.61;100.00
63493;BME280;49638;47.526;10.028;2023-11-19T05:54:21;91768.91;;;7.57;100.00
63493;BME280;49638;47.526;10.028;2023-11-19T05:57:21;91779.91;;;7.66;100.00
63493;BME280;49638;47.526;10.028;2023-11-19T06:00:25;91782.78;;;7.65;100.00
63493;BME280;49638;47.526;10.028;2023-11-19T06:03:26;91757.22;;;7.53;100.00
63493;BME280;49638;47.526;10.028;2023-11-19T06:06:28;91764.66;;;7.56;100.00
63493;BME280;49638;47.526;10.028;2023-11-19T06:09:28;91773.72;;;7.61;100.00
63493;BME280;49638;47.526;10.028;2023-11-19T06:12:29;91769.28;;;7.61;100.00
63493;BME280;49638;47.526;10.028;2023-11-19T06:15:29;91771.56;;;7.69;100.00
63493;BME280;49638;47.526;10.028;2023-11-19T06:18:29;91769.63;;;7.65;100.00
63493;BME280;49638;47.526;10.028;2023-11-19T06:21:31;91770.63;;;7.64;100.00
63493;BME280;49638;47.526;10.028;2023-11-19T06:24:31;91774.78;;;7.71;100.00
63493;BME280;49638;47.526;10.028;2023-11-19T06:27:32;91780.72;;;7.67;100.00
63493;BME280;49638;47.526;10.028;2023-11-19T06:30:32;91767.47;;;7.73;100.00
63493;BME280;49638;47.526;10.028;2023-11-19T06:33:32;91770.78;;;7.69;100.00
63493;BME280;49638;47.526;10.028;2023-11-19T06:36:33;91779.81;;;7.73;100.00
63493;BME280;49638;47.526;10.028;2023-11-19T06:39:34;91780.25;;;7.70;100.00
63493;BME280;49638;47.526;10.028;2023-11-19T06:42:35;91776.59;;;7.71;100.00
63493;BME280;49638;47.526;10.028;2023-11-19T06:45:36;91768.72;;;7.71;100.00
63493;BME280;49638;47.526;10.028;2023-11-19T06:48:39;91756.69;;;7.63;100.00
63493;BME280;49638;47.526;10.028;2023-11-19T06:51:42;91772.16;;;7.71;100.00
63493;BME280;49638;47.526;10.028;2023-11-19T06:54:43;91775.59;;;7.72;100.00
63493;BME280;49638;47.526;10.028;2023-11-19T06:57:45;91776.03;;;7.69;100.00
63493;BME280;49638;47.526;10.028;2023-11-19T07:00:45;91791.50;;;7.77;100.00
63493;BME280;49638;47.526;10.028;2023-11-19T07:03:47;91781.22;;;7.75;100.00
63493;BME280;49638;47.526;10.028;2023-11-19T07:06:48;91799.84;;;7.74;100.00
63493;BME280;49638;47.526;10.028;2023-11-19T07:09:49;91792.97;;;7.73;100.00
63493;BME280;49638;47.526;10.028;2023-11-19T07:12:50;91806.63;;;7.81;100.00
63493;BME280;49638;47.526;10.028;2023-11-19T07:15:50;91793.13;;;7.78;100.00
63493;BME280;49638;47.526;10.028;2023-11-19T07:18:50;91804.13;;;7.87;100.00
63493;BME280;49638;47.526;10.028;2023-11-19T07:21:51;91822.31;;;7.88;100.00
63493;BME280;49638;47.526;10.028;2023-11-19T07:24:54;91816.22;;;7.88;100.00
63493;BME280;49638;47.526;10.028;2023-11-19T07:27:54;91809.03;;;7.83;100.00
63493;BME280;49638;47.526;10.028;2023-11-19T07:30:54;91804.22;;;7.80;100.00
63493;BME280;49638;47.526;10.028;2023-11-19T07:33:56;91812.81;;;7.87;100.00
63493;BME280;49638;47.526;10.028;2023-11-19T07:36:56;91792.53;;;7.76;100.00
63493;BME280;49638;47.526;10.028;2023-11-19T07:40:02;91809.91;;;7.77;100.00
63493;BME280;49638;47.526;10.028;2023-11-19T07:43:03;91825.16;;;7.87;100.00
63493;BME280;49638;47.526;10.028;2023-11-19T07:46:03;91821.66;;;7.93;100.00
63493;BME280;49638;47.526;10.028;2023-11-19T07:49:04;91812.81;;;7.87;100.00
63493;BME280;49638;47.526;10.028;2023-11-19T07:52:04;91816.72;;;7.96;100.00
63493;BME280;49638;47.526;10.028;2023-11-19T07:55:05;91818.22;;;7.92;100.00
63493;BME280;49638;47.526;10.028;2023-11-19T07:58:05;91824.28;;;7.93;100.00
63493;BME280;49638;47.526;10.028;2023-11-19T08:01:06;91814.53;;;7.93;100.00
63493;BME280;49638;47.526;10.028;2023-11-19T08:04:06;91815.69;;;7.97;100.00
63493;BME280;49638;47.526;10.028;2023-11-19T08:07:06;91830.84;;;8.02;100.00
63493;BME280;49638;47.526;10.028;2023-11-19T08:10:07;91820.06;;;8.03;100.00
63493;BME280;49638;47.526;10.028;2023-11-19T08:13:11;91829.34;;;8.06;100.00
63493;BME280;49638;47.526;10.028;2023-11-19T08:16:11;91812.16;;;7.92;100.00
63493;BME280;49638;47.526;10.028;2023-11-19T08:19:11;91824.28;;;8.04;100.00
63493;BME280;49638;47.526;10.028;2023-11-19T08:22:12;91811.97;;;8.05;100.00
63493;BME280;49638;47.526;10.028;2023-11-19T08:25:12;91839.25;;;8.22;100.00
63493;BME280;49638;47.526;10.028;2023-11-19T08:28:13;91842.44;;;8.24;100.00
63493;BME280;49638;47.526;10.028;2023-11-19T08:31:13;91815.75;;;8.21;100.00
63493;BME280;49638;47.526;10.028;2023-11-19T08:34:13;91842.34;;;8.31;100.00
63493;BME280;49638;47.526;10.028;2023-11-19T08:37:14;91841.09;;;8.34;100.00
63493;BME280;49638;47.526;10.028;2023-11-19T08:40:14;91833.63;;;8.30;100.00
63493;BME280;49638;47.526;10.028;2023-11-19T08:43:14;91842.84;;;8.40;100.00
63493;BME280;49638;47.526;10.028;2023-11-19T08:46:16;91839.19;;;8.41;100.00
63493;BME280;49638;47.526;10.028;2023-11-19T08:49:16;91837.69;;;8.45;100.00
63493;BME280;49638;47.526;10.028;2023-11-19T08:52:16;91830.13;;;8.48;100.00
63493;BME280;49638;47.526;10.028;2023-11-19T08:55:17;91824.88;;;8.48;100.00
63493;BME280;49638;47.526;10.028;2023-11-19T08:58:18;91837.94;;;8.55;100.00
63493;BME280;49638;47.526;10.028;2023-11-19T09:01:18;91836.34;;;8.54;100.00
63493;BME280;49638;47.526;10.028;2023-11-19T09:04:18;91841.16;;;8.57;100.00
63493;BME280;49638;47.526;10.028;2023-11-19T09:07:22;91851.69;;;8.57;100.00
63493;BME280;49638;47.526;10.028;2023-11-19T09:10:22;91852.03;;;8.61;100.00
63493;BME280;49638;47.526;10.028;2023-11-19T09:13:22;91848.97;;;8.64;100.00
63493;BME280;49638;47.526;10.028;2023-11-19T09:16:23;91858.25;;;8.66;100.00
63493;BME280;49638;47.526;10.028;2023-11-19T09:19:24;91841.25;;;8.62;100.00
63493;BME280;49638;47.526;10.028;2023-11-19T09:22:24;91857.56;;;8.71;100.00
63493;BME280;49638;47.526;10.028;2023-11-19T09:25:24;91853.88;;;8.72;100.00
63493;BME280;49638;47.526;10.028;2023-11-19T09:28:25;91852.28;;;8.71;100.00
63493;BME280;49638;47.526;10.028;2023-11-19T09:31:25;91841.75;;;8.71;100.00
63493;BME280;49638;47.526;10.028;2023-11-19T09:34:25;91844.97;;;8.73;100.00
63493;BME280;49638;47.526;10.028;2023-11-19T09:37:26;91850.78;;;8.75;100.00
63493;BME280;49638;47.526;10.028;2023-11-19T09:40:26;91838.66;;;8.74;100.00
63493;BME280;49638;47.526;10.028;2023-11-19T09:43:28;91844.47;;;8.76;100.00
63493;BME280;49638;47.526;10.028;2023-11-19T09:46:29;91839.44;;;8.74;100.00
63493;BME280;49638;47.526;10.028;2023-11-19T09:49:30;91842.88;;;8.75;100.00
63493;BME280;49638;47.526;10.028;2023-11-19T09:52:30;91836.81;;;8.74;100.00
63493;BME280;49638;47.526;10.028;2023-11-19T09:55:31;91848.16;;;8.75;100.00
63493;BME280;49638;47.526;10.028;2023-11-19T09:58:32;91842.19;;;8.80;100.00
63493;BME280;49638;47.526;10.028;2023-11-19T10:01:33;91841.19;;;8.81;100.00
63493;BME280;49638;47.526;10.028;2023-11-19T10:04:35;91845.66;;;8.80;100.00
63493;BME280;49638;47.526;10.028;2023-11-19T10:07:36;91844.03;;;8.79;100.00
63493;BME280;49638;47.526;10.028;2023-11-19T10:10:37;91846.78;;;8.84;100.00
63493;BME280;49638;47.526;10.028;2023-11-19T10:13:37;91845.19;;;8.83;100.00
63493;BME280;49638;47.526;10.028;2023-11-19T10:16:38;91837.63;;;8.87;100.00
63493;BME280;49638;47.526;10.028;2023-11-19T10:19:40;91838.97;;;8.89;100.00
63493;BME280;49638;47.526;10.028;2023-11-19T10:22:41;91830.53;;;8.87;100.00
63493;BME280;49638;47.526;10.028;2023-11-19T10:25:41;91834.88;;;8.93;100.00
63493;BME280;49638;47.526;10.028;2023-11-19T10:28:42;91819.75;;;8.89;100.00
63493;BME280;49638;47.526;10.028;2023-11-19T10:31:55;91830.16;;;8.95;100.00
63493;BME280;49638;47.526;10.028;2023-11-19T10:35:05;91821.00;;;8.98;100.00
63493;BME280;49638;47.526;10.028;2023-11-19T10:38:14;91820.19;;;8.97;100.00
63493;BME280;49638;47.526;10.028;2023-11-19T10:41:31;91820.19;;;8.97;100.00
63493;BME280;49638;47.526;10.028;2023-11-19T10:44:32;91821.22;;;8.96;100.00
63493;BME280;49638;47.526;10.028;2023-11-19T10:47:36;91799.56;;;8.94;100.00
63493;BME280;49638;47.526;10.028;2023-11-19T10:50:39;91806.56;;;9.00;100.00
63493;BME280;49638;47.526;10.028;2023-11-19T10:53:41;91798.66;;;9.00;100.00
63493;BME280;49638;47.526;10.028;2023-11-19T10:56:44;91793.94;;;9.03;100.00
63493;BME280;49638;47.526;10.028;2023-11-19T10:59:45;91774.69;;;9.02;100.00
63493;BME280;49638;47.526;10.028;2023-11-19T11:02:48;91773.97;;;9.07;100.00
63493;BME280;49638;47.526;10.028;2023-11-19T11:05:52;91770.09;;;9.09;100.00
63493;BME280;49638;47.526;10.028;2023-11-19T11:08:53;91757.59;;;9.05;100.00
63493;BME280;49638;47.526;10.028;2023-11-19T11:11:54;91762.75;;;9.11;100.00
63493;BME280;49638;47.526;10.028;2023-11-19T11:14:58;91775.56;;;9.19;100.00
63493;BME280;49638;47.526;10.028;2023-11-19T11:18:02;91771.09;;;9.20;100.00
63493;BME280;49638;47.526;10.028;2023-11-19T11:21:09;91763.66;;;9.17;100.00
63493;BME280;49638;47.526;10.028;2023-11-19T11:28:05;91764.88;;;9.26;100.00
63493;BME280;49638;47.526;10.028;2023-11-19T11:37:44;91758.09;;;9.30;100.00
63493;BME280;49638;47.526;10.028;2023-11-19T11:41:17;91753.41;;;9.32;100.00
63493;BME280;49638;47.526;10.028;2023-11-19T11:48:06;91747.00;;;9.28;100.00
63493;BME280;49638;47.526;10.028;2023-11-19T11:51:08;91751.25;;;9.29;100.00
63493;BME280;49638;47.526;10.028;2023-11-19T11:54:30;91734.03;;;9.27;100.00
63493;BME280;49638;47.526;10.028;2023-11-19T11:57:36;91757.63;;;9.33;100.00
63493;BME280;49638;47.526;10.028;2023-11-19T12:00:39;91753.75;;;9.36;100.00
63493;BME280;49638;47.526;10.028;2023-11-19T12:03:39;91759.81;;;9.36;100.00
63493;BME280;49638;47.526;10.028;2023-11-19T12:06:40;91749.72;;;9.33;100.00
63493;BME280;49638;47.526;10.028;2023-11-19T12:09:48;91761.91;;;9.34;100.00
63493;BME280;49638;47.526;10.028;2023-11-19T12:12:48;91757.75;;;9.38;100.00
63493;BME280;49638;47.526;10.028;2023-11-19T12:19:02;91779.66;;;9.39;100.00
63493;BME280;49638;47.526;10.028;2023-11-19T12:22:10;91775.16;;;9.39;100.00
63493;BME280;49638;47.526;10.028;2023-11-19T12:25:11;91772.53;;;9.39;100.00
63493;BME280;49638;47.526;10.028;2023-11-19T12:28:12;91758.09;;;9.30;100.00
63493;BME280;49638;47.526;10.028;2023-11-19T12:31:13;91768.31;;;9.38;100.00
63493;BME280;49638;47.526;10.028;2023-11-19T12:34:14;91776.75;;;9.40;100.00
63493;BME280;49638;47.526;10.028;2023-11-19T12:37:14;91761.53;;;9.42;100.00
63493;BME280;49638;47.526;10.028;2023-11-19T12:40:25;91767.50;;;9.38;100.00
63493;BME280;49638;47.526;10.028;2023-11-19T12:43:25;91760.06;;;9.35;100.00
63493;BME280;49638;47.526;10.028;2023-11-19T12:46:26;91754.78;;;9.35;100.00
63493;BME280;49638;47.526;10.028;2023-11-19T12:49:27;91774.38;;;9.39;100.00
63493;BME280;49638;47.526;10.028;2023-11-19T12:52:28;91773.59;;;9.38;100.00
63493;BME280;49638;47.526;10.028;2023-11-19T12:55:29;91753.41;;;9.32;100.00
63493;BME280;49638;47.526;10.028;2023-11-19T12:58:36;91757.88;;;9.32;100.00
63493;BME280;49638;47.526;10.028;2023-11-19T13:01:38;91755.81;;;9.34;100.00
63493;BME280;49638;47.526;10.028;2023-11-19T13:04:38;91732.78;;;9.29;100.00
63493;BME280;49638;47.526;10.028;2023-11-19T13:07:39;91733.09;;;9.33;100.00
63493;BME280;49638;47.526;10.028;2023-11-19T13:13:55;91735.03;;;9.37;100.00
63493;BME280;49638;47.526;10.028;2023-11-19T13:16:55;91726.09;;;9.38;100.00
63493;BME280;49638;47.526;10.028;2023-11-19T13:19:55;91718.97;;;9.39;100.00
63493;BME280;49638;47.526;10.028;2023-11-19T13:22:58;91728.34;;;9.46;100.00
63493;BME280;49638;47.526;10.028;2023-11-19T13:25:59;91724.66;;;9.47;100.00
63493;BME280;49638;47.526;10.028;2023-11-19T13:28:59;91716.75;;;9.47;100.00
63493;BME280;49638;47.526;10.028;2023-11-19T13:32:00;91736.38;;;9.52;100.00
63493;BME280;49638;47.526;10.028;2023-11-19T13:35:00;91707.56;;;9.50;100.00
63493;BME280;49638;47.526;10.028;2023-11-19T13:38:02;91722.13;;;9.53;100.00
63493;BME280;49638;47.526;10.028;2023-11-19T13:41:03;91719.03;;;9.56;100.00
63493;BME280;49638;47.526;10.028;2023-11-19T13:44:06;91698.41;;;9.53;100.00
63493;BME280;49638;47.526;10.028;2023-11-19T13:47:09;91703.75;;;9.58;100.00
63493;BME280;49638;47.526;10.028;2023-11-19T13:50:11;91700.31;;;9.57;100.00
63493;BME280;49638;47.526;10.028;2023-11-19T13:53:11;91698.25;;;9.59;100.00
63493;BME280;49638;47.526;10.028;2023-11-19T13:56:12;91694.03;;;9.58;100.00
63493;BME280;49638;47.526;10.028;2023-11-19T13:59:12;91682.31;;;9.54;100.00
63493;BME280;49638;47.526;10.028;2023-11-19T14:02:12;91687.84;;;9.53;100.00
63493;BME280;49638;47.526;10.028;2023-11-19T14:05:13;91683.63;;;9.52;100.00
63493;BME280;49638;47.526;10.028;2023-11-19T14:08:15;91694.34;;;9.62;100.00
63493;BME280;49638;47.526;10.028;2023-11-19T14:11:15;91693.56;;;9.61;100.00
63493;BME280;49638;47.526;10.028;2023-11-19T14:14:16;91694.09;;;9.63;100.00
63493;BME280;49638;47.526;10.028;2023-11-19T14:17:16;91682.50;;;9.64;100.00
63493;BME280;49638;47.526;10.028;2023-11-19T14:20:16;91677.47;;;9.63;100.00
63493;BME280;49638;47.526;10.028;2023-11-19T14:23:17;91682.03;;;9.67;100.00
63493;BME280;49638;47.526;10.028;2023-11-19T14:26:17;91677.00;;;9.66;100.00
63493;BME280;49638;47.526;10.028;2023-11-19T14:29:18;91665.88;;;9.64;100.00
63493;BME280;49638;47.526;10.028;2023-11-19T14:32:18;91689.13;;;9.67;100.00
63493;BME280;49638;47.526;10.028;2023-11-19T14:35:18;91684.66;;;9.67;100.00
63493;BME280;49638;47.526;10.028;2023-11-19T14:38:20;91689.72;;;9.69;100.00
63493;BME280;49638;47.526;10.028;2023-11-19T14:41:20;91684.97;;;9.71;100.00
63493;BME280;49638;47.526;10.028;2023-11-19T14:44:20;91698.50;;;9.75;100.00
63493;BME280;49638;47.526;10.028;2023-11-19T14:47:21;91684.44;;;9.69;100.00
63493;BME280;49638;47.526;10.028;2023-11-19T14:50:22;91693.22;;;9.75;100.00
63493;BME280;49638;47.526;10.028;2023-11-19T14:53:22;91678.69;;;9.72;100.00
63493;BME280;49638;47.526;10.028;2023-11-19T14:56:22;91684.81;;;9.78;100.00
63493;BME280;49638;47.526;10.028;2023-11-19T14:59:23;91691.47;;;9.80;100.00
63493;BME280;49638;47.526;10.028;2023-11-19T15:02:23;91681.16;;;9.79;100.00
63493;BME280;49638;47.526;10.028;2023-11-19T15:05:23;91691.47;;;9.80;100.00
63493;BME280;49638;47.526;10.028;2023-11-19T15:08:23;91694.03;;;9.75;100.00
63493;BME280;49638;47.526;10.028;2023-11-19T15:11:24;91691.94;;;9.77;100.00
63493;BME280;49638;47.526;10.028;2023-11-19T15:14:24;91698.81;;;9.78;100.00
63493;BME280;49638;47.526;10.028;2023-11-19T15:17:24;91692.06;;;9.82;100.00
63493;BME280;49638;47.526;10.028;2023-11-19T15:20:25;91689.97;;;9.84;100.00
63493;BME280;49638;47.526;10.028;2023-11-19T15:23:29;91706.13;;;9.88;100.00
63493;BME280;49638;47.526;10.028;2023-11-19T15:26:30;91694.69;;;9.82;100.00
63493;BME280;49638;47.526;10.028;2023-11-19T15:29:30;91697.34;;;9.82;100.00
63493;BME280;49638;47.526;10.028;2023-11-19T15:32:33;91706.59;;;9.85;100.00
63493;BME280;49638;47.526;10.028;2023-11-19T15:35:33;91697.00;;;9.79;100.00
63493;BME280;49638;47.526;10.028;2023-11-19T15:38:34;91709.81;;;9.87;100.00
63493;BME280;49638;47.526;10.028;2023-11-19T15:41:35;91727.72;;;9.85;100.00
63493;BME280;49638;47.526;10.028;2023-11-19T15:44:37;91715.81;;;9.82;100.00
63493;BME280;49638;47.526;10.028;2023-11-19T15:47:38;91728.44;;;9.80;100.00
63493;BME280;49638;47.526;10.028;2023-11-19T15:50:41;91736.91;;;9.82;100.00
63493;BME280;49638;47.526;10.028;2023-11-19T15:53:44;91734.50;;;9.81;100.00
63493;BME280;49638;47.526;10.028;2023-11-19T15:56:46;91730.50;;;9.78;100.00
63493;BME280;49638;47.526;10.028;2023-11-19T15:59:47;91716.44;;;9.73;100.00
63493;BME280;49638;47.526;10.028;2023-11-19T16:02:48;91704.28;;;9.71;100.00
63493;BME280;49638;47.526;10.028;2023-11-19T16:05:50;91725.41;;;9.71;100.00
63493;BME280;49638;47.526;10.028;2023-11-19T16:08:50;91726.97;;;9.73;100.00